createdAt,value
2023-03-06T00:04:36.568Z,3.54
2023-03-06T00:09:38.429Z,3.39
2023-03-06T00:14:40.122Z,3.49
2023-03-06T00:19:41.819Z,3.28
2023-03-06T00:24:44.859Z,3.12
2023-03-06T00:29:49.250Z,3.23
2023-03-06T00:34:52.786Z,3.30
2023-03-06T00:39:55.006Z,3.31
2023-03-06T00:44:56.921Z,3.10
2023-03-06T00:49:58.734Z,3.31
2023-03-06T00:55:00.764Z,3.48
2023-03-06T01:00:03.692Z,3.44
2023-03-06T01:05:06.656Z,3.38
2023-03-06T01:10:09.397Z,3.33
2023-03-06T01:15:12.972Z,3.34
2023-03-06T01:20:16.637Z,3.43
2023-03-06T01:25:18.536Z,3.41
2023-03-06T01:30:20.631Z,3.15
2023-03-06T01:35:22.512Z,3.25
2023-03-06T01:40:24.446Z,3.42
2023-03-06T01:45:26.308Z,3.23
2023-03-06T01:50:28.810Z,3.27
2023-03-06T01:55:35.114Z,3.28
2023-03-06T02:00:37.013Z,3.21
2023-03-06T02:05:40.892Z,3.11
2023-03-06T02:10:55.918Z,3.17
2023-03-06T02:15:57.671Z,3.26
2023-03-06T02:21:04.096Z,3.12
2023-03-06T02:26:07.996Z,3.25
2023-03-06T02:31:22.067Z,3.20
2023-03-06T02:36:23.878Z,3.25
2023-03-06T02:41:25.912Z,3.35
2023-03-06T02:46:27.919Z,3.01
2023-03-06T02:51:29.849Z,3.25
2023-03-06T02:56:32.044Z,3.11
2023-03-06T03:01:33.923Z,3.14
2023-03-06T03:06:35.696Z,3.24
2023-03-06T03:11:37.600Z,3.09
2023-03-06T03:16:39.388Z,3.06
2023-03-06T03:21:41.799Z,3.21
2023-03-06T03:26:43.526Z,3.15
2023-03-06T03:31:45.210Z,3.31
2023-03-06T03:36:46.982Z,3.26
2023-03-06T03:41:49.027Z,3.14
2023-03-06T03:46:51.008Z,3.16
2023-03-06T03:51:52.974Z,3.16
2023-03-06T03:56:54.602Z,3.33
2023-03-06T04:01:56.692Z,3.21
2023-03-06T04:06:58.379Z,3.31
2023-03-06T04:12:00.406Z,3.18
2023-03-06T04:17:02.362Z,3.13
2023-03-06T04:22:04.056Z,3.34
2023-03-06T04:27:06.132Z,3.20
2023-03-06T04:32:08.147Z,3.07
2023-03-06T04:37:22.273Z,3.10
2023-03-06T04:42:24.067Z,3.04
2023-03-06T04:47:26.063Z,3.15
2023-03-06T04:52:28.076Z,2.96
2023-03-06T04:57:30.048Z,3.01
2023-03-06T05:02:32.130Z,3.08
2023-03-06T05:07:33.804Z,3.17
2023-03-06T05:12:37.287Z,3.10
2023-03-06T05:17:39.232Z,3.02
2023-03-06T05:22:41.779Z,2.85
2023-03-06T05:27:43.859Z,2.92
2023-03-06T05:32:45.621Z,2.92
2023-03-06T05:37:48.080Z,2.86
2023-03-06T05:42:50.300Z,2.66
2023-03-06T05:47:52.301Z,2.90
2023-03-06T05:52:54.281Z,2.80
2023-03-06T05:57:56.119Z,2.95
2023-03-06T06:03:01.214Z,2.92
2023-03-06T06:08:02.943Z,2.90
2023-03-06T06:13:04.745Z,2.90
2023-03-06T06:18:06.535Z,2.77
2023-03-06T06:23:10.995Z,2.90
2023-03-06T06:28:12.698Z,2.86
2023-03-06T06:33:14.374Z,2.72
2023-03-06T06:38:16.453Z,2.88
2023-03-06T06:43:18.259Z,2.91
2023-03-06T06:48:20.091Z,3.01
2023-03-06T06:53:22.129Z,3.03
2023-03-06T06:58:24.247Z,3.12
2023-03-06T07:03:25.948Z,3.18
2023-03-06T07:08:28.137Z,3.24
2023-03-06T07:13:30.117Z,3.30
2023-03-06T07:18:32.174Z,3.33
2023-03-06T07:23:34.259Z,3.38
2023-03-06T07:28:51.287Z,3.40
2023-03-06T07:33:55.130Z,3.46
2023-03-06T07:38:57.030Z,3.43
2023-03-06T07:43:59.064Z,3.54
2023-03-06T07:49:00.964Z,3.65
2023-03-06T07:54:03.002Z,3.65
2023-03-06T07:59:04.889Z,3.65
2023-03-06T08:04:07.269Z,3.67
2023-03-06T08:09:09.235Z,3.67
2023-03-06T08:14:10.962Z,3.70
2023-03-06T08:19:12.818Z,3.78
2023-03-06T08:24:17.860Z,3.67
2023-03-06T08:29:19.680Z,3.88
2023-03-06T08:34:24.431Z,3.87
2023-03-06T08:39:26.207Z,3.90
2023-03-06T08:44:27.968Z,3.91
2023-03-06T08:49:30.220Z,3.95
2023-03-06T08:54:34.366Z,4.00
2023-03-06T08:59:36.761Z,4.18
2023-03-06T09:04:38.614Z,4.21
2023-03-06T09:09:40.337Z,4.24
2023-03-06T09:14:42.170Z,4.27
2023-03-06T09:19:44.169Z,4.45
2023-03-06T09:24:46.062Z,4.57
2023-03-06T09:29:47.802Z,4.53
2023-03-06T09:34:50.518Z,4.61
2023-03-06T09:39:52.399Z,4.71
2023-03-06T09:44:56.906Z,4.75
2023-03-06T09:50:25.173Z,4.73
2023-03-06T09:55:31.335Z,4.82
2023-03-06T10:00:38.582Z,4.92
2023-03-06T10:05:44.736Z,5.00
2023-03-06T10:11:03.791Z,5.13
2023-03-06T10:16:14.578Z,5.07
2023-03-06T10:21:37.911Z,5.15
2023-03-06T10:26:55.097Z,5.18
2023-03-06T10:32:11.463Z,5.22
2023-03-06T10:37:19.675Z,5.25
2023-03-06T10:42:21.369Z,5.21
2023-03-06T10:47:37.054Z,5.24
2023-03-06T10:52:38.812Z,5.30
2023-03-06T10:57:40.550Z,5.53
2023-03-06T11:02:42.393Z,5.55
2023-03-06T11:07:59.572Z,5.58
2023-03-06T11:13:21.006Z,5.63
2023-03-06T11:18:28.599Z,5.65
2023-03-06T11:23:36.527Z,5.55
2023-03-06T11:28:50.457Z,5.52
2023-03-06T11:33:52.294Z,5.54
2023-03-06T11:38:55.253Z,5.63
2023-03-06T11:44:24.900Z,5.80
2023-03-06T11:49:35.113Z,5.80
2023-03-06T11:54:37.018Z,5.79
2023-03-06T11:59:51.340Z,5.81
2023-03-06T12:05:01.200Z,5.70
2023-03-06T12:10:51.545Z,5.79
2023-03-06T12:16:23.065Z,5.72
2023-03-06T12:21:36.748Z,5.75
2023-03-06T12:26:44.510Z,5.82
2023-03-06T12:32:40.077Z,6.14
2023-03-06T12:38:25.349Z,6.01
2023-03-06T12:44:05.148Z,5.96
2023-03-06T12:49:23.053Z,5.80
2023-03-06T12:54:36.540Z,6.00
2023-03-06T12:59:48.088Z,5.86
2023-03-06T13:05:11.203Z,5.79
2023-03-06T13:10:41.962Z,5.75
2023-03-06T13:15:45.920Z,5.84
2023-03-06T13:20:57.609Z,6.03
2023-03-06T13:26:00.545Z,5.86
2023-03-06T13:31:02.312Z,5.84
2023-03-06T13:36:21.254Z,5.90
2023-03-06T13:41:22.992Z,5.93
2023-03-06T13:46:31.103Z,6.05
2023-03-06T13:51:54.884Z,5.90
2023-03-06T13:57:17.913Z,5.88
2023-03-06T14:02:47.686Z,6.07
2023-03-06T14:08:01.634Z,5.99
2023-03-06T14:13:06.031Z,6.31
2023-03-06T14:18:36.969Z,5.99
2023-03-06T14:23:43.625Z,5.87
2023-03-06T14:28:55.103Z,5.90
2023-03-06T14:34:08.168Z,5.89
2023-03-06T14:39:14.670Z,5.84
2023-03-06T14:44:26.501Z,5.87
2023-03-06T14:49:28.239Z,5.79
2023-03-06T14:54:37.034Z,5.82
2023-03-06T14:59:50.790Z,5.87
2023-03-06T15:04:58.575Z,5.80
2023-03-06T15:10:01.191Z,5.73
2023-03-06T15:15:10.408Z,5.72
2023-03-06T15:20:41.669Z,5.84
2023-03-06T15:25:51.872Z,5.70
2023-03-06T15:31:20.616Z,5.72
2023-03-06T15:36:29.620Z,5.71
2023-03-06T15:41:35.695Z,5.79
2023-03-06T15:46:37.621Z,5.71
2023-03-06T15:51:39.456Z,5.90
2023-03-06T15:56:44.468Z,5.83
2023-03-06T16:01:46.587Z,5.66
2023-03-06T16:06:48.873Z,5.62
2023-03-06T16:11:50.567Z,5.73
2023-03-06T16:16:56.782Z,5.72
2023-03-06T16:21:59.289Z,5.66
2023-03-06T16:27:02.084Z,5.61
2023-03-06T16:32:04.965Z,5.56
2023-03-06T16:37:12.060Z,5.61
2023-03-06T16:42:17.054Z,5.59
2023-03-06T16:47:18.961Z,5.54
2023-03-06T16:52:20.841Z,5.52
2023-03-06T16:57:24.244Z,5.61
2023-03-06T17:02:26.783Z,5.52
2023-03-06T17:07:29.706Z,5.55
2023-03-06T17:12:31.575Z,5.57
2023-03-06T17:17:34.003Z,5.62
2023-03-06T17:22:38.932Z,5.56
2023-03-06T17:27:41.243Z,5.52
2023-03-06T17:32:43.369Z,5.44
2023-03-06T17:37:45.155Z,5.47
2023-03-06T17:42:47.475Z,5.52
2023-03-06T17:47:53.284Z,5.47
2023-03-06T17:52:55.616Z,5.42
2023-03-06T17:57:57.921Z,5.44
2023-03-06T18:03:00.397Z,5.48
2023-03-06T18:08:02.962Z,5.38
2023-03-06T18:13:10.204Z,5.42
2023-03-06T18:18:15.468Z,5.43
2023-03-06T18:23:17.867Z,5.42
2023-03-06T18:28:20.098Z,5.39
2023-03-06T18:33:24.536Z,5.37
2023-03-06T18:38:28.058Z,5.39
2023-03-06T18:43:31.424Z,5.40
2023-03-06T18:48:35.789Z,5.41
2023-03-06T18:53:51.043Z,5.40
2023-03-06T18:58:55.022Z,5.36
2023-03-06T19:04:01.890Z,5.40
2023-03-06T19:09:05.209Z,5.39
2023-03-06T19:14:08.307Z,5.43
2023-03-06T19:19:11.715Z,5.42
2023-03-06T19:24:14.888Z,5.35
2023-03-06T19:29:18.659Z,5.39
2023-03-06T19:34:22.851Z,5.38
2023-03-06T19:39:25.592Z,5.35
2023-03-06T19:44:31.281Z,5.41
2023-03-06T19:49:33.988Z,5.38
2023-03-06T19:54:36.902Z,5.35
2023-03-06T19:59:39.523Z,5.38
2023-03-06T20:04:43.269Z,5.36
2023-03-06T20:09:48.499Z,5.41
2023-03-06T20:14:51.364Z,5.38
2023-03-06T20:19:53.917Z,5.33
2023-03-06T20:24:57.023Z,5.32
2023-03-06T20:30:00.027Z,5.34
2023-03-06T20:35:02.736Z,5.32
2023-03-06T20:40:06.473Z,5.30
2023-03-06T20:45:10.195Z,5.31
2023-03-06T20:50:16.918Z,5.35
2023-03-06T20:55:19.554Z,5.29
2023-03-06T21:00:22.449Z,5.33
2023-03-06T21:05:24.669Z,5.30
2023-03-06T21:10:27.083Z,5.31
2023-03-06T21:15:30.080Z,5.28
2023-03-06T21:20:33.702Z,5.25
2023-03-06T21:25:35.961Z,5.25
2023-03-06T21:30:37.636Z,5.23
2023-03-06T21:35:44.327Z,5.22
2023-03-06T21:40:46.186Z,5.26
2023-03-06T21:45:52.636Z,5.23
2023-03-06T21:51:13.962Z,5.24
2023-03-06T21:56:17.642Z,5.22
2023-03-06T22:01:23.886Z,5.23
2023-03-06T22:06:28.535Z,5.22
2023-03-06T22:11:37.077Z,5.24
2023-03-06T22:16:39.078Z,5.25
2023-03-06T22:21:40.875Z,5.22
2023-03-06T22:26:42.597Z,5.24
2023-03-06T22:31:44.459Z,5.17
2023-03-06T22:36:46.364Z,5.14
2023-03-06T22:41:48.561Z,5.21
2023-03-06T22:46:51.823Z,5.20
2023-03-06T22:51:53.498Z,5.17
2023-03-06T22:56:56.418Z,5.15
2023-03-06T23:01:58.205Z,5.18
2023-03-06T23:06:59.860Z,5.14
2023-03-06T23:12:01.821Z,5.15
2023-03-06T23:17:04.007Z,5.10
2023-03-06T23:22:05.754Z,5.08
2023-03-06T23:27:07.708Z,5.09
2023-03-06T23:32:09.540Z,5.05
2023-03-06T23:37:11.394Z,5.06
2023-03-06T23:42:13.140Z,5.09
2023-03-06T23:47:17.247Z,5.08
2023-03-06T23:52:19.162Z,5.07
2023-03-06T23:57:21.224Z,4.98
